createdAt,value
2018-09-08T00:01:01.556Z,12.70
2018-09-08T00:03:30.067Z,12.60
2018-09-08T00:05:58.698Z,12.60
2018-09-08T00:08:27.202Z,12.60
2018-09-08T00:10:55.813Z,12.60
2018-09-08T00:13:24.298Z,12.60
2018-09-08T00:15:58.327Z,12.70
2018-09-08T00:18:32.290Z,12.60
2018-09-08T00:21:06.093Z,12.60
2018-09-08T00:23:39.936Z,12.60
2018-09-08T00:26:13.674Z,12.60
2018-09-08T00:28:42.563Z,12.60
2018-09-08T00:31:15.238Z,12.60
2018-09-08T00:33:43.910Z,12.60
2018-09-08T00:36:12.552Z,12.60
2018-09-08T00:38:41.320Z,12.50
2018-09-08T00:41:09.783Z,12.50
2018-09-08T00:43:38.598Z,12.60
2018-09-08T00:46:07.981Z,12.60
2018-09-08T00:48:36.559Z,12.50
2018-09-08T00:51:05.091Z,12.50
2018-09-08T00:53:33.679Z,12.50
2018-09-08T00:56:02.308Z,12.50
2018-09-08T00:58:30.918Z,12.50
2018-09-08T01:00:59.410Z,12.50
2018-09-08T01:03:28.088Z,12.50
2018-09-08T01:05:56.682Z,12.50
2018-09-08T01:08:25.167Z,12.40
2018-09-08T01:10:53.903Z,12.40
2018-09-08T01:13:22.355Z,12.40
2018-09-08T01:15:51.083Z,12.40
2018-09-08T01:18:19.555Z,12.40
2018-09-08T01:20:48.079Z,12.40
2018-09-08T01:23:16.741Z,12.40
2018-09-08T01:25:45.222Z,12.40
2018-09-08T01:28:13.703Z,12.40
2018-09-08T01:30:42.166Z,12.50
2018-09-08T01:33:10.806Z,12.50
2018-09-08T01:35:39.417Z,12.50
2018-09-08T01:38:08.038Z,12.60
2018-09-08T01:40:36.531Z,12.60
2018-09-08T01:43:05.131Z,12.60
2018-09-08T01:45:33.706Z,12.60
2018-09-08T01:48:02.379Z,12.60
2018-09-08T01:50:31.019Z,12.60
2018-09-08T01:52:59.493Z,12.60
2018-09-08T01:55:27.995Z,12.60
2018-09-08T01:57:56.458Z,12.70
2018-09-08T02:00:25.050Z,12.60
2018-09-08T02:02:53.554Z,12.60
2018-09-08T02:05:22.116Z,12.70
2018-09-08T02:07:50.713Z,12.70
2018-09-08T02:10:19.355Z,12.70
2018-09-08T02:12:47.955Z,12.70
2018-09-08T02:15:16.430Z,12.70
2018-09-08T02:17:45.114Z,12.70
2018-09-08T02:20:13.563Z,12.70
2018-09-08T02:22:42.183Z,12.70
2018-09-08T02:25:10.891Z,12.80
2018-09-08T02:27:39.451Z,12.80
2018-09-08T02:30:08.771Z,12.80
2018-09-08T02:32:37.283Z,12.80
2018-09-08T02:35:06.230Z,12.90
2018-09-08T02:37:34.795Z,12.90
2018-09-08T02:40:03.327Z,12.90
2018-09-08T02:42:31.800Z,12.90
2018-09-08T02:45:00.432Z,12.90
2018-09-08T02:47:28.934Z,12.90
2018-09-08T02:50:08.658Z,12.90
2018-09-08T02:52:36.031Z,12.90
2018-09-08T02:55:03.491Z,12.80
2018-09-08T02:57:30.810Z,12.80
2018-09-08T02:59:58.160Z,12.80
2018-09-08T03:02:25.687Z,12.80
2018-09-08T03:04:53.005Z,12.80
2018-09-08T03:07:20.348Z,12.80
2018-09-08T03:09:47.696Z,12.70
2018-09-08T03:12:15.038Z,12.80
2018-09-08T03:14:42.346Z,12.80
2018-09-08T03:17:09.685Z,12.80
2018-09-08T03:19:36.986Z,12.80
2018-09-08T03:22:04.594Z,12.80
2018-09-08T03:24:31.946Z,12.80
2018-09-08T03:26:59.432Z,12.80
2018-09-08T03:29:26.880Z,12.70
2018-09-08T03:31:54.259Z,12.70
2018-09-08T03:34:21.606Z,12.70
2018-09-08T03:36:48.915Z,12.80
2018-09-08T03:39:16.246Z,12.80
2018-09-08T03:41:43.568Z,12.80
2018-09-08T03:44:10.903Z,12.80
2018-09-08T03:46:38.387Z,12.80
2018-09-08T03:49:05.695Z,12.80
2018-09-08T03:51:33.114Z,12.70
2018-09-08T03:54:00.504Z,12.70
2018-09-08T03:56:27.883Z,12.70
2018-09-08T03:58:55.276Z,12.70
2018-09-08T04:01:22.566Z,12.70
2018-09-08T04:03:51.134Z,12.80
2018-09-08T04:06:19.742Z,12.70
2018-09-08T04:08:48.207Z,12.70
2018-09-08T04:11:16.925Z,12.70
2018-09-08T04:13:45.422Z,12.70
2018-09-08T04:16:14.144Z,12.70
2018-09-08T04:18:42.664Z,12.70
2018-09-08T04:21:11.165Z,12.70
2018-09-08T04:23:39.634Z,12.70
2018-09-08T04:26:08.198Z,12.70
2018-09-08T04:28:36.668Z,12.70
2018-09-08T04:31:05.572Z,12.70
2018-09-08T04:33:34.539Z,12.70
2018-09-08T04:36:03.969Z,12.70
2018-09-08T04:38:32.659Z,12.70
2018-09-08T04:41:01.156Z,12.60
2018-09-08T04:43:29.627Z,12.60
2018-09-08T04:45:58.116Z,12.60
2018-09-08T04:48:26.799Z,12.60
2018-09-08T04:50:55.287Z,12.60
2018-09-08T04:53:24.079Z,12.60
2018-09-08T04:55:52.571Z,12.60
2018-09-08T04:58:21.071Z,12.60
2018-09-08T05:00:49.653Z,12.60
2018-09-08T05:03:18.304Z,12.60
2018-09-08T05:05:46.787Z,12.60
2018-09-08T05:08:15.361Z,12.60
2018-09-08T05:10:43.875Z,12.60
2018-09-08T05:13:12.329Z,12.60
2018-09-08T05:15:40.997Z,12.60
2018-09-08T05:18:09.497Z,12.60
2018-09-08T05:20:38.223Z,12.60
2018-09-08T05:23:06.730Z,12.60
2018-09-08T05:25:35.402Z,12.60
2018-09-08T05:28:03.935Z,12.60
2018-09-08T05:30:32.882Z,12.60
2018-09-08T05:33:01.396Z,12.60
2018-09-08T05:35:30.024Z,12.60
2018-09-08T05:37:58.731Z,12.60
2018-09-08T05:40:27.219Z,12.60
2018-09-08T05:42:55.741Z,12.60
2018-09-08T05:45:24.412Z,12.60
2018-09-08T05:47:52.911Z,12.60
2018-09-08T05:50:21.426Z,12.70
2018-09-08T05:52:49.980Z,12.70
2018-09-08T05:55:18.686Z,12.70
2018-09-08T05:57:47.306Z,12.70
2018-09-08T06:00:15.901Z,12.70
2018-09-08T06:02:44.520Z,12.70
2018-09-08T06:05:13.035Z,12.70
2018-09-08T06:07:41.571Z,12.70
2018-09-08T06:10:10.034Z,12.80
2018-09-08T06:12:38.752Z,12.80
2018-09-08T06:15:07.352Z,12.80
2018-09-08T06:17:35.940Z,12.90
2018-09-08T06:20:04.746Z,12.90
2018-09-08T06:22:33.247Z,12.90
2018-09-08T06:25:01.886Z,13.00
2018-09-08T06:27:30.379Z,13.00
2018-09-08T06:29:58.919Z,13.10
2018-09-08T06:32:27.496Z,13.10
2018-09-08T06:34:56.867Z,13.20
2018-09-08T06:37:25.403Z,13.20
2018-09-08T06:39:54.146Z,13.30
2018-09-08T06:42:22.795Z,13.30
2018-09-08T06:44:51.542Z,13.40
2018-09-08T06:47:20.143Z,13.40
2018-09-08T06:49:48.734Z,13.50
2018-09-08T06:52:17.291Z,13.60
2018-09-08T06:54:45.798Z,13.60
2018-09-08T06:57:14.298Z,13.70
2018-09-08T06:59:42.778Z,13.80
2018-09-08T07:02:11.284Z,13.80
2018-09-08T07:04:39.964Z,13.90
2018-09-08T07:07:13.255Z,14.00
2018-09-08T07:09:43.252Z,14.00
2018-09-08T07:12:12.025Z,14.10
2018-09-08T07:14:40.736Z,14.20
2018-09-08T07:17:09.243Z,14.20
2018-09-08T07:19:38.311Z,14.30
2018-09-08T07:22:07.375Z,14.40
2018-09-08T07:24:35.991Z,14.50
2018-09-08T07:27:04.495Z,14.60
2018-09-08T07:29:33.024Z,14.60
2018-09-08T07:32:01.604Z,14.80
2018-09-08T07:34:30.116Z,14.90
2018-09-08T07:36:58.828Z,15.00
2018-09-08T07:39:27.326Z,15.20
2018-09-08T07:41:55.912Z,15.30
2018-09-08T07:44:24.625Z,15.50
2018-09-08T07:46:53.176Z,15.70
2018-09-08T07:49:21.824Z,15.80
2018-09-08T07:51:50.332Z,15.90
2018-09-08T07:54:18.901Z,16.00
2018-09-08T07:56:47.403Z,16.20
2018-09-08T07:59:16.211Z,16.30
2018-09-08T08:01:44.735Z,16.50
2018-09-08T08:04:13.264Z,16.60
2018-09-08T08:06:41.970Z,16.70
2018-09-08T08:09:10.552Z,16.70
2018-09-08T08:11:39.072Z,16.80
2018-09-08T08:14:07.665Z,16.90
2018-09-08T08:16:36.234Z,16.90
2018-09-08T08:19:05.143Z,16.90
2018-09-08T08:21:33.654Z,16.90
2018-09-08T08:24:02.372Z,16.90
2018-09-08T08:26:30.965Z,17.00
2018-09-08T08:28:59.603Z,17.00
2018-09-08T08:31:28.347Z,17.00
2018-09-08T08:33:56.868Z,17.00
2018-09-08T08:36:25.974Z,17.00
2018-09-08T08:38:54.998Z,17.00
2018-09-08T08:41:23.565Z,16.90
2018-09-08T08:43:52.149Z,16.90
2018-09-08T08:46:20.952Z,16.90
2018-09-08T08:48:49.829Z,16.90
2018-09-08T08:51:29.609Z,17.00
2018-09-08T08:54:09.266Z,17.00
2018-09-08T08:56:37.742Z,17.00
2018-09-08T08:59:06.418Z,17.10
2018-09-08T09:01:35.039Z,17.20
2018-09-08T09:04:03.647Z,17.40
2018-09-08T09:06:32.262Z,17.40
2018-09-08T09:09:00.755Z,17.40
2018-09-08T09:11:29.589Z,17.50
2018-09-08T09:13:58.263Z,17.60
2018-09-08T09:16:26.870Z,17.50
2018-09-08T09:19:06.755Z,17.50
2018-09-08T09:21:46.666Z,17.50
2018-09-08T09:25:18.826Z,17.50
2018-09-08T09:27:48.542Z,17.40
2018-09-08T09:30:17.974Z,17.40
2018-09-08T09:32:46.579Z,17.40
2018-09-08T09:35:18.402Z,17.40
2018-09-08T09:37:46.976Z,17.40
2018-09-08T09:40:16.734Z,17.30
2018-09-08T09:42:45.438Z,17.30
2018-09-08T09:45:14.086Z,17.30
2018-09-08T09:47:42.656Z,17.30
2018-09-08T09:50:12.279Z,17.30
2018-09-08T09:52:41.251Z,17.30
2018-09-08T09:55:09.904Z,17.30
2018-09-08T09:57:38.607Z,17.20
2018-09-08T10:00:08.965Z,17.20
2018-09-08T10:02:45.590Z,17.30
2018-09-08T10:05:21.335Z,17.30
2018-09-08T10:07:50.375Z,17.40
2018-09-08T10:10:20.465Z,17.40
2018-09-08T10:12:49.181Z,17.30
2018-09-08T10:15:17.733Z,17.30
2018-09-08T10:17:46.631Z,17.20
2018-09-08T10:20:16.667Z,17.20
2018-09-08T10:22:45.284Z,17.10
2018-09-08T10:25:15.882Z,17.10
2018-09-08T10:27:45.160Z,17.10
2018-09-08T10:30:14.441Z,17.00
2018-09-08T10:32:43.958Z,17.00
2018-09-08T10:35:12.774Z,17.10
2018-09-08T10:37:41.312Z,17.10
2018-09-08T10:40:10.730Z,17.20
2018-09-08T10:42:39.299Z,17.30
2018-09-08T10:45:08.498Z,17.40
2018-09-08T10:47:37.213Z,17.40
2018-09-08T10:50:06.276Z,17.50
2018-09-08T10:52:39.430Z,17.60
2018-09-08T10:55:08.499Z,17.60
2018-09-08T10:57:37.163Z,17.60
2018-09-08T11:00:06.421Z,17.50
2018-09-08T11:02:35.310Z,17.60
2018-09-08T11:05:04.022Z,17.60
2018-09-08T11:07:32.844Z,17.70
2018-09-08T11:10:01.506Z,17.70
2018-09-08T11:12:30.614Z,17.80
2018-09-08T11:14:59.245Z,17.80
2018-09-08T11:17:28.072Z,17.70
2018-09-08T11:19:56.835Z,17.70
2018-09-08T11:22:25.423Z,17.60
2018-09-08T11:24:54.116Z,17.60
2018-09-08T11:27:22.668Z,17.60
2018-09-08T11:29:51.258Z,17.60
2018-09-08T11:32:19.777Z,17.70
2018-09-08T11:34:48.455Z,17.80
2018-09-08T11:37:17.007Z,17.80
2018-09-08T11:39:45.660Z,17.80
2018-09-08T11:42:14.226Z,17.80
2018-09-08T11:44:42.854Z,17.80
2018-09-08T11:47:11.439Z,18.00
2018-09-08T11:49:40.159Z,18.10
2018-09-08T11:52:08.672Z,18.30
2018-09-08T11:54:37.458Z,18.30
2018-09-08T11:57:06.155Z,18.30
2018-09-08T11:59:34.776Z,18.40
2018-09-08T12:02:03.496Z,18.50
2018-09-08T12:04:31.959Z,18.40
2018-09-08T12:07:00.511Z,18.30
2018-09-08T12:09:29.102Z,18.30
2018-09-08T12:11:57.658Z,18.30
2018-09-08T12:14:26.353Z,18.30
2018-09-08T12:16:55.024Z,18.30
2018-09-08T12:19:23.647Z,18.30
2018-09-08T12:21:52.275Z,18.30
2018-09-08T12:24:21.003Z,18.20
2018-09-08T12:26:49.447Z,18.20
2018-09-08T12:29:18.050Z,18.20
2018-09-08T12:31:46.758Z,18.30
2018-09-08T12:34:15.597Z,18.20
2018-09-08T12:36:44.190Z,18.30
2018-09-08T12:39:12.804Z,18.30
2018-09-08T12:41:41.387Z,18.40
2018-09-08T12:44:09.947Z,18.40
2018-09-08T12:46:38.508Z,18.40
2018-09-08T12:49:07.219Z,18.40
2018-09-08T12:51:35.731Z,18.40
2018-09-08T12:54:04.326Z,18.40
2018-09-08T12:56:32.918Z,18.40
2018-09-08T12:59:01.486Z,18.50
2018-09-08T13:01:30.035Z,18.60
2018-09-08T13:03:58.731Z,18.60
2018-09-08T13:06:27.394Z,18.60
2018-09-08T13:08:56.178Z,18.60
2018-09-08T13:11:24.939Z,18.50
2018-09-08T13:13:53.415Z,18.60
2018-09-08T13:16:21.963Z,18.60
2018-09-08T13:18:50.628Z,18.60
2018-09-08T13:21:19.268Z,18.50
2018-09-08T13:23:47.969Z,18.50
2018-09-08T13:26:16.483Z,18.40
2018-09-08T13:28:44.977Z,18.40
2018-09-08T13:31:13.694Z,18.40
2018-09-08T13:33:42.220Z,18.50
2018-09-08T13:36:11.045Z,18.60
2018-09-08T13:38:39.647Z,18.60
2018-09-08T13:41:08.590Z,18.50
2018-09-08T13:43:37.487Z,18.50
2018-09-08T13:46:06.255Z,18.50
2018-09-08T13:48:34.953Z,18.50
2018-09-08T13:51:03.624Z,18.50
2018-09-08T13:53:32.199Z,18.60
2018-09-08T13:56:00.795Z,18.60
2018-09-08T13:58:29.664Z,18.60
2018-09-08T14:00:58.191Z,18.60
2018-09-08T14:03:26.893Z,18.60
2018-09-08T14:05:55.384Z,18.70
2018-09-08T14:08:23.979Z,18.60
2018-09-08T14:10:52.685Z,18.70
2018-09-08T14:13:21.231Z,18.70
2018-09-08T14:15:50.108Z,18.60
2018-09-08T14:18:18.918Z,18.60
2018-09-08T14:20:47.552Z,18.60
2018-09-08T14:23:16.259Z,18.60
2018-09-08T14:25:44.842Z,18.60
2018-09-08T14:28:13.465Z,18.60
2018-09-08T14:30:41.980Z,18.60
2018-09-08T14:33:10.476Z,18.50
2018-09-08T14:35:39.195Z,18.50
2018-09-08T14:38:07.978Z,18.50
2018-09-08T14:40:36.804Z,18.50
2018-09-08T14:43:05.317Z,18.50
2018-09-08T14:45:33.924Z,18.40
2018-09-08T14:48:02.480Z,18.50
2018-09-08T14:50:31.362Z,18.50
2018-09-08T14:53:00.160Z,18.50
2018-09-08T14:55:28.853Z,18.50
2018-09-08T14:57:57.683Z,18.50
2018-09-08T15:00:26.156Z,18.40
2018-09-08T15:02:54.737Z,18.40
2018-09-08T15:05:23.339Z,18.40
2018-09-08T15:07:52.015Z,18.40
2018-09-08T15:10:20.546Z,18.40
2018-09-08T15:12:49.330Z,18.40
2018-09-08T15:15:18.267Z,18.40
2018-09-08T15:17:46.950Z,18.40
2018-09-08T15:20:15.608Z,18.40
2018-09-08T15:22:44.119Z,18.40
2018-09-08T15:25:12.791Z,18.40
2018-09-08T15:27:41.579Z,18.40
2018-09-08T15:30:10.336Z,18.40
2018-09-08T15:32:39.049Z,18.50
2018-09-08T15:35:07.775Z,18.50
2018-09-08T15:37:36.338Z,18.50
2018-09-08T15:40:04.983Z,18.50
2018-09-08T15:42:33.476Z,18.50
2018-09-08T15:45:02.447Z,18.40
2018-09-08T15:47:31.201Z,18.40
2018-09-08T15:50:00.000Z,18.40
2018-09-08T15:52:28.512Z,18.40
2018-09-08T15:54:57.099Z,18.30
2018-09-08T15:57:25.641Z,18.30
2018-09-08T15:59:54.579Z,18.30
2018-09-08T16:02:23.213Z,18.30
2018-09-08T16:04:52.038Z,18.30
2018-09-08T16:07:20.775Z,18.30
2018-09-08T16:09:49.392Z,18.30
2018-09-08T16:12:18.034Z,18.30
2018-09-08T16:14:46.639Z,18.30
2018-09-08T16:17:15.268Z,18.20
2018-09-08T16:19:43.975Z,18.20
2018-09-08T16:22:12.565Z,18.20
2018-09-08T16:24:41.433Z,18.20
2018-09-08T16:27:10.028Z,18.20
2018-09-08T16:29:38.741Z,18.10
2018-09-08T16:32:07.525Z,18.10
2018-09-08T16:34:36.172Z,18.10
2018-09-08T16:37:04.676Z,18.10
2018-09-08T16:39:33.276Z,18.10
2018-09-08T16:42:01.893Z,18.10
2018-09-08T16:44:30.515Z,18.10
2018-09-08T16:46:59.119Z,18.10
2018-09-08T16:49:27.815Z,18.00
2018-09-08T16:51:56.521Z,18.00
2018-09-08T16:54:26.341Z,18.00
2018-09-08T16:56:55.037Z,18.00
2018-09-08T16:59:23.650Z,18.00
2018-09-08T17:01:52.292Z,18.00
2018-09-08T17:04:20.876Z,18.00
2018-09-08T17:06:49.874Z,17.90
2018-09-08T17:09:18.430Z,17.90
2018-09-08T17:11:47.090Z,17.90
2018-09-08T17:14:15.666Z,17.90
2018-09-08T17:16:44.268Z,17.90
2018-09-08T17:19:13.158Z,17.90
2018-09-08T17:21:41.649Z,17.80
2018-09-08T17:24:10.268Z,17.80
2018-09-08T17:26:38.866Z,17.80
2018-09-08T17:29:07.817Z,17.80
2018-09-08T17:31:36.516Z,17.70
2018-09-08T17:34:05.510Z,17.70
2018-09-08T17:36:33.979Z,17.70
2018-09-08T17:39:02.666Z,17.70
2018-09-08T17:41:31.303Z,17.60
2018-09-08T17:44:00.012Z,17.60
2018-09-08T17:46:28.651Z,17.60
2018-09-08T17:48:57.183Z,17.60
2018-09-08T17:51:25.789Z,17.60
2018-09-08T17:53:54.229Z,17.50
2018-09-08T17:56:22.976Z,17.50
2018-09-08T17:58:51.558Z,17.50
2018-09-08T18:01:20.562Z,17.40
2018-09-08T18:03:50.716Z,17.40
2018-09-08T18:06:19.584Z,17.40
2018-09-08T18:08:48.217Z,17.40
2018-09-08T18:11:16.911Z,17.30
2018-09-08T18:13:45.441Z,17.30
2018-09-08T18:16:14.114Z,17.30
2018-09-08T18:18:42.867Z,17.30
2018-09-08T18:21:11.504Z,17.30
2018-09-08T18:23:41.004Z,17.20
2018-09-08T18:26:10.003Z,17.20
2018-09-08T18:28:38.527Z,17.20
2018-09-08T18:31:07.324Z,17.20
2018-09-08T18:33:36.023Z,17.10
2018-09-08T18:36:04.624Z,17.10
2018-09-08T18:38:33.309Z,17.10
2018-09-08T18:41:01.890Z,17.10
2018-09-08T18:43:30.566Z,17.10
2018-09-08T18:45:59.111Z,17.10
2018-09-08T18:48:27.921Z,17.10
2018-09-08T18:50:56.479Z,17.00
2018-09-08T18:53:25.060Z,17.00
2018-09-08T18:55:53.724Z,17.00
2018-09-08T18:58:22.319Z,16.90
2018-09-08T19:00:50.919Z,16.90
2018-09-08T19:03:19.800Z,16.90
2018-09-08T19:05:48.403Z,16.90
2018-09-08T19:08:17.010Z,16.90
2018-09-08T19:10:45.692Z,16.90
2018-09-08T19:13:14.479Z,16.90
2018-09-08T19:15:43.048Z,16.90
2018-09-08T19:18:11.695Z,16.90
2018-09-08T19:20:41.679Z,16.80
2018-09-08T19:23:10.214Z,16.80
2018-09-08T19:25:38.862Z,16.80
2018-09-08T19:28:07.527Z,16.70
2018-09-08T19:30:36.232Z,16.70
2018-09-08T19:33:04.784Z,16.70
2018-09-08T19:35:36.523Z,16.70
2018-09-08T19:38:05.228Z,16.70
2018-09-08T19:40:39.051Z,16.70
2018-09-08T19:43:07.849Z,16.70
2018-09-08T19:45:36.815Z,16.70
2018-09-08T19:48:07.468Z,16.70
2018-09-08T19:50:36.323Z,16.60
2018-09-08T19:53:10.463Z,16.60
2018-09-08T19:55:39.091Z,16.60
2018-09-08T19:58:12.920Z,16.60
2018-09-08T20:00:41.408Z,16.60
2018-09-08T20:03:10.069Z,16.60
2018-09-08T20:05:38.711Z,16.60
2018-09-08T20:08:07.293Z,16.60
2018-09-08T20:10:36.054Z,16.60
2018-09-08T20:13:04.751Z,16.60
2018-09-08T20:15:33.339Z,16.60
2018-09-08T20:18:01.947Z,16.60
2018-09-08T20:20:30.509Z,16.60
2018-09-08T20:22:59.598Z,16.60
2018-09-08T20:25:28.155Z,16.60
2018-09-08T20:27:56.684Z,16.60
2018-09-08T20:30:25.251Z,16.60
2018-09-08T20:32:53.877Z,16.60
2018-09-08T20:35:22.607Z,16.60
2018-09-08T20:37:51.101Z,16.60
2018-09-08T20:40:19.736Z,16.60
2018-09-08T20:42:48.511Z,16.60
2018-09-08T20:45:17.129Z,16.50
2018-09-08T20:47:45.801Z,16.50
2018-09-08T20:50:14.330Z,16.60
2018-09-08T20:52:42.816Z,16.50
2018-09-08T20:55:11.328Z,16.50
2018-09-08T20:57:39.944Z,16.50
2018-09-08T21:00:08.697Z,16.50
2018-09-08T21:02:37.527Z,16.60
2018-09-08T21:05:06.641Z,16.60
2018-09-08T21:07:35.269Z,16.60
2018-09-08T21:10:03.920Z,16.60
2018-09-08T21:12:32.542Z,16.60
2018-09-08T21:15:01.116Z,16.60
2018-09-08T21:17:29.806Z,16.60
2018-09-08T21:19:58.469Z,16.60
2018-09-08T21:22:27.560Z,16.50
2018-09-08T21:24:56.134Z,16.50
2018-09-08T21:27:24.659Z,16.50
2018-09-08T21:29:53.547Z,16.50
2018-09-08T21:32:22.048Z,16.50
2018-09-08T21:34:50.893Z,16.50
2018-09-08T21:37:19.491Z,16.40
2018-09-08T21:39:48.298Z,16.50
2018-09-08T21:42:16.798Z,16.40
2018-09-08T21:44:45.325Z,16.40
2018-09-08T21:47:13.849Z,16.40
2018-09-08T21:49:42.507Z,16.40
2018-09-08T21:52:11.351Z,16.40
2018-09-08T21:54:39.910Z,16.30
2018-09-08T21:57:08.659Z,16.40
2018-09-08T21:59:37.171Z,16.30
2018-09-08T22:02:05.773Z,16.30
2018-09-08T22:04:34.410Z,16.30
2018-09-08T22:07:03.131Z,16.20
2018-09-08T22:09:31.794Z,16.20
2018-09-08T22:12:00.371Z,16.20
2018-09-08T22:14:28.976Z,16.10
2018-09-08T22:16:57.667Z,16.10
2018-09-08T22:19:26.430Z,16.10
2018-09-08T22:21:55.266Z,16.10
2018-09-08T22:24:23.911Z,16.10
2018-09-08T22:26:52.580Z,16.10
2018-09-08T22:29:21.202Z,16.20
2018-09-08T22:31:49.708Z,16.10
2018-09-08T22:34:18.421Z,16.10
2018-09-08T22:36:47.010Z,16.10
2018-09-08T22:39:15.540Z,16.10
2018-09-08T22:41:44.035Z,16.10
2018-09-08T22:44:12.639Z,16.10
2018-09-08T22:46:41.323Z,16.00
2018-09-08T22:49:09.835Z,16.00
2018-09-08T22:51:38.495Z,16.00
2018-09-08T22:54:07.330Z,16.00
2018-09-08T22:56:35.875Z,16.00
2018-09-08T22:59:04.597Z,16.00
2018-09-08T23:01:33.102Z,16.00
2018-09-08T23:04:01.732Z,16.00
2018-09-08T23:06:30.322Z,16.00
2018-09-08T23:08:59.010Z,16.00
2018-09-08T23:11:27.535Z,16.00
2018-09-08T23:13:56.198Z,15.90
2018-09-08T23:16:24.779Z,16.00
2018-09-08T23:18:53.532Z,15.90
2018-09-08T23:21:22.243Z,15.90
2018-09-08T23:23:50.799Z,15.90
2018-09-08T23:26:19.446Z,15.90
2018-09-08T23:28:48.026Z,15.90
2018-09-08T23:31:16.510Z,15.90
2018-09-08T23:33:45.172Z,15.90
2018-09-08T23:36:13.660Z,15.90
2018-09-08T23:38:42.374Z,15.90
2018-09-08T23:41:10.974Z,15.90
2018-09-08T23:43:39.568Z,15.90
2018-09-08T23:46:08.275Z,15.80
2018-09-08T23:48:36.845Z,15.80
2018-09-08T23:51:05.419Z,15.80
2018-09-08T23:53:33.898Z,15.80
2018-09-08T23:56:02.688Z,15.80
2018-09-08T23:58:31.475Z,15.80
